Wasilla, Alaska
Current Conditions -  °F | °C
As of 5:36 AM on Thursday 29 Jan 2015 (Local Time) from PAWS Reporting Station
Clear Clear  
Wind Chill: -8°   Ceiling: Unl
Heat Index: -8°   Visibility: 10mi
Dew Point: -17°   Wind: 0mph
Humidity: 65%   Direction: NA
Pressure: 29.97"   Gusts: NA
Location:  61.58°N, 149.45°W
Report Text: PAWS 291436Z AUTO 00000KT 10SM CLR M22/M27 A2997 RMK AO1
Loading
Personal Weather Stations






























Interactive Weather Map New forecast layout! Learn more

10-Day Weather Forecast

Advertisements
Track Severe Weather on mobile